Archival Weather

NSFA McMurdo Sound

NSFA McMurdo Sound, Antarctica (NZCM)

Report from: Tuesday, June 6, 2023 4:55 AM UTC
Current time: Tuesday, July 16, 2024 8:56 AM UTC

Current weather – Weather history – Daily summaries
Weather forecast

Temperature-21.0°C (-5.8°F)
Wind chill-28.9°C (-19.9°F)
Dew point-31.6°C (-24.9°F)
Winds 6 kts (3.1 m/s, 6.9 mph) Vrb
Winds variableWinds variable
Visibility6.2 mi. (10 km)
Clouds Sky clear
Altimeter29.08 in.Hg (985 mB)
Relative humidity38 %
Density altitude-7,052 ft. (-2,150 m)
Sea-level pressure108.5 kPa (1085 mB, 32.05 in.Hg)
Remarks Fully automated report
Automated weather observing station with precipitation discriminator
Flight conditions Visual Meteorological Conditions
Raw dataNZCM 060455Z AUTO VRB06KT 9999 CLR M21/M32 A2908 RMK AO2 SLP854 T12101316
An error has occurred. This application may no longer respond until reloaded. Reload 🗙